Elk Point, Nevada
Current Conditions -  °F | °C
As of 12:53 AM on Tuesday 21 Oct 2014 (Local Time) from KTVL Reporting Station
Broken Clouds Broken Clouds  
Wind Chill: 36°   Ceiling: 3900
Heat Index: 41°   Visibility: 10mi
Dew Point: 30°   Wind: 8mph
Humidity: 65%   Direction: 210°SSW
Pressure: 30.06"   Gusts: 17mph
Location:  39.0164°N, 119.925°W
Report Text: KTVL 210753Z AUTO 21007G15KT 180V320 10SM SCT031 BKN039 05/M01 A3006 RMK AO2 RAE0658 SLP141 P0000 T00501011 401720044
Loading
Personal Weather Stations






























Interactive Weather Map
Tropical Storm Tracking
New forecast layout! Learn more

10-Day Weather Forecast

Advertisements
Track Severe Weather on mobile